Time;durP1;ratioP1;P1;durP2;ratioP2;P2;SDS_P1;SDS_P2;PMS_P1;PMS_P2;Temp;Humidity;BMP_temperature;BMP_pressure;BME280_temperature;BME280_humidity;BME280_pressure;Samples;Min_cycle;Max_cycle;Signal;HPM_P1;HPM_P2
2022/03/01 00:00:05;;;;;;;7.40;5.70;;;17.20;52.50;;;;;;4932573;28;93095;-72
2022/03/01 00:02:31;;;;;;;6.70;6.00;;;17.20;52.50;;;;;;4932869;28;95155;-72
2022/03/01 00:04:57;;;;;;;6.05;5.45;;;17.20;52.50;;;;;;4933572;28;92657;-72
2022/03/01 00:07:22;;;;;;;5.95;5.35;;;17.20;52.50;;;;;;4932359;28;92974;-72
2022/03/01 00:09:48;;;;;;;6.55;5.78;;;17.20;52.40;;;;;;4932801;28;93227;-72
2022/03/01 00:12:14;;;;;;;6.32;5.68;;;17.20;52.40;;;;;;4932402;28;94623;-72
2022/03/01 00:14:39;;;;;;;7.25;5.47;;;17.20;52.30;;;;;;4932755;28;94002;-73
2022/03/01 00:17:05;;;;;;;7.32;5.97;;;17.10;52.20;;;;;;4932687;28;92822;-73
2022/03/01 00:19:31;;;;;;;5.90;5.30;;;17.10;52.30;;;;;;4930702;28;96876;-72
2022/03/01 00:21:58;;;;;;;6.85;6.15;;;17.10;52.20;;;;;;4932623;28;96122;-73
2022/03/01 00:24:24;;;;;;;6.22;5.60;;;17.10;52.10;;;;;;4931951;28;93860;-72
2022/03/01 00:26:51;;;;;;;6.95;5.60;;;17.10;52.10;;;;;;4932714;28;92496;-71
2022/03/01 00:29:16;;;;;;;6.72;5.57;;;17.10;52.10;;;;;;4931611;28;92575;-72
2022/03/01 00:31:42;;;;;;;6.57;5.75;;;17.10;52.10;;;;;;4933132;28;95406;-72
2022/03/01 00:34:08;;;;;;;6.30;5.63;;;17.10;52.10;;;;;;4931151;28;94520;-72
2022/03/01 00:36:36;;;;;;;9.18;5.93;;;17.10;52.10;;;;;;4934470;28;92243;-72
2022/03/01 00:39:03;;;;;;;6.65;5.53;;;17.10;52.10;;;;;;4933525;28;93372;-73
2022/03/01 00:41:30;;;;;;;6.10;5.32;;;17.10;52.10;;;;;;4932338;28;93580;-73
2022/03/01 00:43:55;;;;;;;7.50;6.13;;;17.10;52.00;;;;;;4930950;28;95280;-72
2022/03/01 00:46:22;;;;;;;6.13;5.53;;;17.10;52.00;;;;;;4932432;28;93175;-72
2022/03/01 00:48:49;;;;;;;6.68;5.97;;;17.00;52.00;;;;;;4931269;28;94244;-73
2022/03/01 00:51:15;;;;;;;6.40;5.60;;;17.00;51.90;;;;;;4931757;28;93407;-71
2022/03/01 00:53:40;;;;;;;6.55;5.88;;;17.00;51.90;;;;;;4932354;28;92915;-72
2022/03/01 00:56:06;;;;;;;6.47;5.78;;;17.00;52.00;;;;;;4931982;28;93140;-72
2022/03/01 00:58:32;;;;;;;6.22;5.38;;;17.00;51.90;;;;;;4931570;28;94156;-71
2022/03/01 01:00:57;;;;;;;6.10;5.50;;;17.00;51.90;;;;;;4932067;28;93722;-72
2022/03/01 01:03:23;;;;;;;6.63;5.50;;;17.00;51.80;;;;;;4930974;28;93013;-72
2022/03/01 01:05:48;;;;;;;6.45;5.75;;;17.00;51.80;;;;;;4932658;28;92487;-73
2022/03/01 01:08:14;;;;;;;6.22;5.63;;;17.00;51.90;;;;;;4930854;28;96014;-73
2022/03/01 01:10:40;;;;;;;6.40;5.60;;;17.00;51.80;;;;;;4932107;28;94505;-72
2022/03/01 01:13:07;;;;;;;6.18;5.43;;;17.00;51.80;;;;;;4932423;28;92986;-72
2022/03/01 01:15:34;;;;;;;6.50;5.75;;;17.00;51.80;;;;;;4933631;28;92532;-73
2022/03/01 01:18:00;;;;;;;6.90;6.05;;;17.00;51.80;;;;;;4935505;28;93085;-73
2022/03/01 01:20:27;;;;;;;6.85;5.88;;;16.90;51.80;;;;;;4942000;28;93534;-73
2022/03/01 01:22:53;;;;;;;5.90;5.35;;;17.00;51.80;;;;;;4938833;28;92539;-73
2022/03/01 01:25:23;;;;;;;6.00;5.18;;;16.90;51.80;;;;;;4917985;28;91988;-72
2022/03/01 01:27:52;;;;;;;6.22;5.63;;;17.00;51.80;;;;;;4932469;28;97270;-71
2022/03/01 01:30:21;;;;;;;6.70;5.63;;;16.90;51.70;;;;;;4936445;28;92900;-72
2022/03/01 01:32:49;;;;;;;6.47;5.70;;;16.90;51.80;;;;;;4932247;28;95436;-73
2022/03/01 01:35:15;;;;;;;6.93;5.55;;;16.90;51.70;;;;;;4936620;28;92555;-73
2022/03/01 01:37:42;;;;;;;6.35;5.60;;;16.90;51.70;;;;;;4935238;28;94449;-72
2022/03/01 01:40:13;;;;;;;6.22;5.63;;;16.90;51.70;;;;;;4934256;28;93153;-72
2022/03/01 01:42:39;;;;;;;6.07;5.32;;;16.90;51.60;;;;;;4936006;28;92499;-72
2022/03/01 01:45:05;;;;;;;6.55;5.28;;;16.90;51.70;;;;;;4935266;28;92590;-72
2022/03/01 01:47:31;;;;;;;6.38;5.68;;;16.90;51.70;;;;;;4935306;28;93313;-72
2022/03/01 01:49:57;;;;;;;5.78;5.18;;;16.90;51.60;;;;;;4935607;28;93432;-72
2022/03/01 01:52:24;;;;;;;6.20;5.60;;;16.90;51.60;;;;;;4935234;28;93017;-71
2022/03/01 01:54:50;;;;;;;5.68;5.18;;;16.90;51.70;;;;;;4935095;28;92417;-74
2022/03/01 01:57:18;;;;;;;6.20;5.05;;;16.90;51.60;;;;;;4932944;28;96158;-73
2022/03/01 01:59:44;;;;;;;6.00;5.40;;;16.80;51.50;;;;;;4934659;28;96335;-72
2022/03/01 02:02:15;;;;;;;5.57;5.05;;;16.80;51.60;;;;;;4935175;28;92525;-73
2022/03/01 02:04:41;;;;;;;5.60;5.10;;;16.80;51.60;;;;;;4935659;28;93118;-71
2022/03/01 02:07:07;;;;;;;6.65;5.28;;;16.80;51.60;;;;;;4934445;28;93144;-72
2022/03/01 02:09:33;;;;;;;5.65;5.05;;;16.80;51.50;;;;;;4934479;28;93014;-72
2022/03/01 02:11:59;;;;;;;5.85;5.00;;;16.80;51.60;;;;;;4934564;28;92535;-72
2022/03/01 02:14:25;;;;;;;6.85;6.03;;;16.80;51.60;;;;;;4935759;28;91914;-72
2022/03/01 02:16:50;;;;;;;6.18;5.50;;;16.80;51.60;;;;;;4934748;28;94055;-72
2022/03/01 02:19:16;;;;;;;6.00;5.40;;;16.80;51.50;;;;;;4935469;28;94015;-72
2022/03/01 02:21:50;;;;;;;6.45;5.72;;;16.80;51.50;;;;;;4916441;28;94928;-72
2022/03/01 02:24:18;;;;;;;7.68;5.43;;;16.80;51.50;;;;;;4936370;28;92943;-72
2022/03/01 02:26:45;;;;;;;5.95;5.35;;;16.80;51.50;;;;;;4935001;28;93016;-72
2022/03/01 02:29:11;;;;;;;6.40;5.70;;;16.80;51.50;;;;;;4933761;28;93275;-72
2022/03/01 02:31:36;;;;;;;6.18;5.57;;;16.80;51.50;;;;;;4935077;28;92915;-72
2022/03/01 02:34:03;;;;;;;6.45;5.68;;;16.70;51.40;;;;;;4933967;28;93928;-72
2022/03/01 02:36:29;;;;;;;6.30;5.63;;;16.70;51.40;;;;;;4934702;28;93787;-72
2022/03/01 02:38:54;;;;;;;5.60;5.10;;;16.70;51.40;;;;;;4933595;28;95035;-71
2022/03/01 02:41:20;;;;;;;6.00;5.43;;;16.70;51.30;;;;;;4934255;28;92887;-72
2022/03/01 02:43:45;;;;;;;5.43;4.75;;;16.70;51.40;;;;;;4932696;28;92576;-72
2022/03/01 02:46:11;;;;;;;6.85;5.43;;;16.70;51.30;;;;;;4933383;28;96113;-71
2022/03/01 02:48:37;;;;;;;5.97;5.38;;;16.70;51.40;;;;;;4932939;28;95235;-73
2022/03/01 02:51:03;;;;;;;6.07;5.32;;;16.70;51.40;;;;;;4914545;28;92930;-71
2022/03/01 02:53:28;;;;;;;6.72;5.60;;;16.70;51.40;;;;;;4933149;28;92881;-72
2022/03/01 02:55:54;;;;;;;6.30;5.70;;;16.70;51.30;;;;;;4933445;28;93679;-71
2022/03/01 02:58:20;;;;;;;6.00;5.40;;;16.70;51.30;;;;;;4934005;28;93006;-73
2022/03/01 03:00:45;;;;;;;6.63;5.80;;;16.70;51.30;;;;;;4933382;28;92487;-71
2022/03/01 03:03:11;;;;;;;5.60;5.00;;;16.70;51.30;;;;;;4916087;28;91948;-71
2022/03/01 03:05:38;;;;;;;6.30;5.60;;;16.70;51.30;;;;;;4933878;28;94130;-72
2022/03/01 03:08:05;;;;;;;6.40;5.40;;;16.70;51.30;;;;;;4934129;28;92998;-72
2022/03/01 03:10:33;;;;;;;5.82;5.22;;;16.60;51.20;;;;;;4933918;28;95406;-72
2022/03/01 03:12:59;;;;;;;5.55;5.05;;;16.60;51.20;;;;;;4937538;28;92611;-72
2022/03/01 03:15:25;;;;;;;5.90;5.30;;;16.70;51.30;;;;;;4939733;28;92516;-72
2022/03/01 03:17:51;;;;;;;5.78;5.18;;;16.60;51.20;;;;;;4946818;28;92638;-72
2022/03/01 03:20:16;;;;;;;6.82;5.60;;;16.60;51.20;;;;;;4943736;28;92540;-73
2022/03/01 03:22:42;;;;;;;6.13;5.50;;;16.60;51.20;;;;;;4935374;28;93332;-72
2022/03/01 03:25:16;;;;;;;6.35;5.50;;;16.70;51.30;;;;;;4937968;28;93630;-72
2022/03/01 03:27:41;;;;;;;6.03;5.38;;;16.70;51.20;;;;;;4936247;28;93400;-72
2022/03/01 03:30:09;;;;;;;6.40;5.25;;;16.60;51.20;;;;;;4934804;28;92490;-72
2022/03/01 03:32:35;;;;;;;6.68;5.85;;;16.60;51.20;;;;;;4936017;28;93071;-73
2022/03/01 03:35:02;;;;;;;5.90;5.18;;;16.60;51.20;;;;;;4932943;28;96288;-72
2022/03/01 03:37:28;;;;;;;6.50;5.70;;;16.60;51.20;;;;;;4933801;28;96661;-72
2022/03/01 03:39:53;;;;;;;5.90;5.40;;;16.60;51.20;;;;;;4933967;28;92725;-72
2022/03/01 03:42:19;;;;;;;5.70;5.00;;;16.60;51.20;;;;;;4933850;28;92760;-72
2022/03/01 03:44:45;;;;;;;6.82;5.70;;;16.60;51.10;;;;;;4933362;28;93274;-72
2022/03/01 03:47:10;;;;;;;6.82;5.72;;;16.60;51.10;;;;;;4933299;28;92688;-72
2022/03/01 03:49:37;;;;;;;6.15;5.43;;;16.60;51.10;;;;;;4917586;28;95189;-72
2022/03/01 03:52:05;;;;;;;6.15;5.55;;;16.50;51.10;;;;;;4934394;28;91830;-72
2022/03/01 03:54:31;;;;;;;6.15;5.55;;;16.50;51.10;;;;;;4933716;28;95068;-71
2022/03/01 03:56:57;;;;;;;5.90;5.28;;;16.50;51.10;;;;;;4933784;28;92924;-72
2022/03/01 03:59:23;;;;;;;6.15;5.55;;;16.60;51.10;;;;;;4932283;28;94931;-70
2022/03/01 05:44:15;;;;;;;6.07;5.47;;;16.30;50.70;;;;;;4996218;23;95117;-70
2022/03/01 05:46:41;;;;;;;5.90;4.97;;;16.30;50.80;;;;;;4954195;28;93743;-69
2022/03/01 05:49:07;;;;;;;6.63;5.60;;;16.30;50.80;;;;;;4952823;28;102154;-71
2022/03/01 05:51:33;;;;;;;5.88;5.18;;;16.30;50.70;;;;;;4954129;28;92409;-70
2022/03/01 05:53:59;;;;;;;7.80;5.63;;;16.30;50.70;;;;;;4954138;28;93602;-70
2022/03/01 05:56:24;;;;;;;5.68;5.07;;;16.30;50.70;;;;;;4953388;28;93295;-70
2022/03/01 05:58:50;;;;;;;6.43;5.60;;;16.30;50.60;;;;;;4953539;28;92584;-70
2022/03/01 06:01:16;;;;;;;6.40;5.65;;;16.30;50.70;;;;;;4953840;28;92741;-70
2022/03/01 06:03:41;;;;;;;6.05;5.45;;;16.30;50.70;;;;;;4953970;28;93157;-70
2022/03/01 06:06:07;;;;;;;5.30;4.80;;;16.30;50.70;;;;;;4953833;28;93201;-70
2022/03/01 06:08:33;;;;;;;5.88;5.15;;;16.40;50.60;;;;;;4952969;28;92620;-70
2022/03/01 06:10:58;;;;;;;5.88;5.25;;;16.60;50.40;;;;;;4953017;28;92860;-70
2022/03/01 06:13:24;;;;;;;5.30;4.80;;;16.70;50.10;;;;;;4952035;28;96960;-70
2022/03/01 06:15:49;;;;;;;4.95;4.30;;;17.00;49.80;;;;;;4953518;28;95306;-69
2022/03/01 06:18:16;;;;;;;5.82;4.85;;;17.20;49.40;;;;;;4953506;28;93308;-69
2022/03/01 06:20:43;;;;;;;7.32;4.20;;;17.50;49.00;;;;;;4953154;28;93108;-69
2022/03/01 06:23:10;;;;;;;7.93;4.95;;;17.70;48.50;;;;;;4953017;28;93445;-70
2022/03/01 06:25:36;;;;;;;5.20;4.40;;;17.90;48.00;;;;;;4952247;28;93421;-71
2022/03/01 06:28:03;;;;;;;4.68;4.18;;;18.10;47.80;;;;;;4952357;28;92583;-71
2022/03/01 06:30:28;;;;;;;7.47;4.78;;;18.20;47.50;;;;;;4953215;28;92229;-71
2022/03/01 06:32:54;;;;;;;16.02;4.65;;;18.30;47.40;;;;;;4952694;28;92597;-68
2022/03/01 06:35:20;;;;;;;66.43;6.82;;;18.30;47.30;;;;;;4951892;28;96683;-69
2022/03/01 06:37:46;;;;;;;16.67;5.05;;;18.40;47.30;;;;;;4952415;28;95371;-67
2022/03/01 06:40:15;;;;;;;11.68;4.13;;;18.40;47.30;;;;;;4954363;28;92722;-67
2022/03/01 06:42:40;;;;;;;14.88;5.25;;;18.40;47.30;;;;;;4953126;28;94205;-67
2022/03/01 06:45:07;;;;;;;20.85;4.75;;;18.40;47.30;;;;;;4951204;28;93031;-69
2022/03/01 06:47:32;;;;;;;16.48;4.75;;;18.40;47.40;;;;;;4952745;28;92828;-69
2022/03/01 06:49:59;;;;;;;10.27;4.43;;;18.30;47.40;;;;;;4952719;28;92548;-68
2022/03/01 06:52:25;;;;;;;13.88;4.60;;;18.30;47.50;;;;;;4951543;28;95056;-69
2022/03/01 06:54:50;;;;;;;13.45;4.43;;;18.30;47.60;;;;;;4952770;28;92815;-68
2022/03/01 06:57:18;;;;;;;27.85;6.15;;;18.20;47.70;;;;;;4952739;28;93039;-68
2022/03/01 06:59:43;;;;;;;40.05;5.40;;;18.20;48.50;;;;;;4952708;28;93150;-70
2022/03/01 07:02:09;;;;;;;23.58;5.20;;;18.30;49.00;;;;;;4949216;28;95395;-69
2022/03/01 07:04:34;;;;;;;18.88;5.15;;;18.40;49.00;;;;;;4952513;28;95695;-70
2022/03/01 07:07:00;;;;;;;16.55;5.53;;;18.50;48.80;;;;;;4952333;28;93000;-72
2022/03/01 07:09:25;;;;;;;17.67;5.60;;;18.50;48.60;;;;;;4952579;28;96500;-71
2022/03/01 07:11:52;;;;;;;20.33;5.40;;;18.50;49.00;;;;;;4952527;28;92992;-72
2022/03/01 07:14:18;;;;;;;16.05;5.57;;;18.40;49.60;;;;;;4952240;28;92728;-72
2022/03/01 07:16:44;;;;;;;15.32;5.90;;;18.30;50.30;;;;;;4952576;28;93833;-71
2022/03/01 07:19:09;;;;;;;14.52;6.03;;;18.20;51.20;;;;;;4952661;28;92095;-72
2022/03/01 07:21:35;;;;;;;21.35;6.38;;;18.10;52.00;;;;;;4953594;28;92487;-72
2022/03/01 07:24:00;;;;;;;17.00;6.57;;;18.10;52.80;;;;;;4952332;28;92914;-72
2022/03/01 07:26:26;;;;;;;13.60;5.97;;;18.00;53.20;;;;;;4950995;28;94992;-71
2022/03/01 07:28:52;;;;;;;10.43;6.00;;;18.00;53.70;;;;;;4953071;28;92589;-71
2022/03/01 07:31:18;;;;;;;17.05;6.35;;;17.90;54.00;;;;;;4952188;28;92733;-70
2022/03/01 07:33:44;;;;;;;14.57;6.32;;;17.90;54.30;;;;;;4952016;28;99946;-70
2022/03/01 07:36:10;;;;;;;16.90;6.43;;;17.80;54.40;;;;;;4951640;28;92772;-66
2022/03/01 07:38:35;;;;;;;9.52;5.25;;;17.80;54.40;;;;;;4952430;28;92803;-65
2022/03/01 07:41:01;;;;;;;12.55;6.22;;;17.80;54.50;;;;;;4952015;28;93702;-66
2022/03/01 07:43:26;;;;;;;17.30;5.90;;;17.70;54.70;;;;;;4951764;28;93377;-66
2022/03/01 07:45:52;;;;;;;12.40;5.50;;;17.70;54.80;;;;;;4951603;28;93061;-66
2022/03/01 07:48:17;;;;;;;13.00;5.90;;;17.60;54.80;;;;;;4951617;28;94631;-66
2022/03/01 07:50:43;;;;;;;11.07;5.78;;;17.60;54.90;;;;;;4950304;28;95203;-66
2022/03/01 07:53:09;;;;;;;13.65;5.50;;;17.50;54.90;;;;;;4952224;28;100096;-66
2022/03/01 07:55:35;;;;;;;12.80;5.50;;;17.50;54.90;;;;;;4950532;28;92673;-66
2022/03/01 07:58:00;;;;;;;12.30;5.65;;;17.40;54.90;;;;;;4952011;28;93223;-69
2022/03/01 08:00:27;;;;;;;10.90;5.95;;;17.40;54.90;;;;;;4951668;28;93116;-68
2022/03/01 08:02:53;;;;;;;10.43;5.22;;;17.40;54.60;;;;;;4950796;28;93082;-67
2022/03/01 08:05:19;;;;;;;13.45;6.03;;;17.30;54.50;;;;;;4951138;28;93172;-69
2022/03/01 08:07:45;;;;;;;9.38;5.72;;;17.30;54.50;;;;;;4951307;28;91883;-67
2022/03/01 08:10:10;;;;;;;13.60;6.38;;;17.20;54.40;;;;;;4951233;28;93097;-68
2022/03/01 08:12:36;;;;;;;15.52;6.57;;;17.20;54.30;;;;;;4951724;28;93256;-69
2022/03/01 08:15:02;;;;;;;10.45;6.07;;;17.20;54.60;;;;;;4950904;28;95211;-68
2022/03/01 08:17:28;;;;;;;13.20;5.85;;;17.20;54.90;;;;;;4953195;28;92833;-69
2022/03/01 08:19:54;;;;;;;12.20;5.82;;;17.20;55.10;;;;;;4955119;28;95723;-68
2022/03/01 08:22:20;;;;;;;9.75;6.63;;;17.10;55.10;;;;;;4951896;28;92810;-69
2022/03/01 08:24:45;;;;;;;10.48;6.25;;;17.10;55.10;;;;;;4952459;28;96260;-69
2022/03/01 08:27:11;;;;;;;9.95;6.25;;;17.20;55.10;;;;;;4953103;28;92600;-69
2022/03/01 08:29:36;;;;;;;11.35;6.15;;;17.20;55.10;;;;;;4952174;28;93100;-71
2022/03/01 08:32:02;;;;;;;10.40;5.97;;;17.10;54.90;;;;;;4952613;28;93412;-71
2022/03/01 08:34:28;;;;;;;9.18;5.97;;;17.10;54.90;;;;;;4951036;28;92532;-69
2022/03/01 08:36:53;;;;;;;10.25;6.00;;;17.10;55.10;;;;;;4951946;28;92689;-68
2022/03/01 08:39:19;;;;;;;9.73;5.80;;;17.10;55.10;;;;;;4949091;28;95511;-69
2022/03/01 08:41:46;;;;;;;10.73;5.88;;;17.10;55.00;;;;;;4950596;28;96352;-68
2022/03/01 08:44:12;;;;;;;11.63;6.28;;;17.10;55.10;;;;;;4949543;28;92927;-70
2022/03/01 08:46:38;;;;;;;9.75;5.90;;;17.10;55.00;;;;;;4951187;28;92559;-70
2022/03/01 08:49:03;;;;;;;10.40;6.22;;;17.10;55.00;;;;;;4949907;28;97886;-70
2022/03/01 08:51:30;;;;;;;11.10;6.43;;;17.10;54.90;;;;;;4950933;28;92656;-70
2022/03/01 08:53:56;;;;;;;9.25;6.30;;;17.10;54.80;;;;;;4952031;28;92969;-70
2022/03/01 08:56:22;;;;;;;9.35;6.05;;;17.10;54.70;;;;;;4951727;28;92416;-70
2022/03/01 08:58:48;;;;;;;9.75;5.93;;;17.00;54.60;;;;;;4949959;28;93206;-70
2022/03/01 09:01:14;;;;;;;10.45;6.43;;;17.00;54.70;;;;;;4950466;28;93206;-69
2022/03/01 09:03:40;;;;;;;9.13;6.45;;;17.00;54.70;;;;;;4948835;28;95504;-70
2022/03/01 09:06:06;;;;;;;11.90;6.40;;;16.90;54.70;;;;;;4951500;28;92876;-69
2022/03/01 09:08:34;;;;;;;9.88;6.55;;;16.90;54.70;;;;;;4950577;28;92851;-70
2022/03/01 09:11:00;;;;;;;10.45;6.40;;;16.90;54.80;;;;;;4950602;28;93183;-70
2022/03/01 09:13:26;;;;;;;12.23;5.82;;;16.90;54.70;;;;;;4949523;28;94309;-71
2022/03/01 09:15:52;;;;;;;12.93;6.47;;;16.80;54.70;;;;;;4951233;28;93126;-70
2022/03/01 09:18:17;;;;;;;9.50;5.90;;;16.80;54.70;;;;;;4950532;28;94543;-70
2022/03/01 09:20:43;;;;;;;10.05;6.45;;;16.80;54.70;;;;;;4950421;28;97651;-70
2022/03/01 09:23:08;;;;;;;9.57;6.20;;;16.80;54.70;;;;;;4950930;28;92886;-70
2022/03/01 09:25:34;;;;;;;8.35;6.18;;;16.70;54.60;;;;;;4950753;28;93061;-70
2022/03/01 09:28:00;;;;;;;10.77;6.07;;;16.80;54.70;;;;;;4948864;28;96440;-70
2022/03/01 09:30:25;;;;;;;11.52;6.72;;;16.70;54.60;;;;;;4950635;28;96245;-70
2022/03/01 09:32:51;;;;;;;12.77;6.40;;;16.70;54.60;;;;;;4950182;28;94174;-69
2022/03/01 09:35:17;;;;;;;9.05;6.05;;;16.70;54.60;;;;;;4950587;28;92591;-70
2022/03/01 09:37:43;;;;;;;11.27;6.30;;;16.80;54.70;;;;;;4948788;28;95234;-70
2022/03/01 09:40:11;;;;;;;9.07;6.22;;;16.70;54.60;;;;;;4950092;28;94045;-70
2022/03/01 09:42:38;;;;;;;10.15;6.40;;;16.70;54.60;;;;;;4950784;28;93065;-70
2022/03/01 09:45:04;;;;;;;7.85;5.80;;;16.70;54.60;;;;;;4949615;28;92228;-70
2022/03/01 09:47:31;;;;;;;8.90;5.70;;;16.70;54.40;;;;;;4949540;28;94457;-70
2022/03/01 09:49:56;;;;;;;9.57;5.93;;;16.70;55.40;;;;;;4950164;28;93218;-70
2022/03/01 09:52:22;;;;;;;9.95;6.78;;;16.70;54.40;;;;;;4947907;28;96120;-70
2022/03/01 09:54:51;;;;;;;8.48;6.18;;;16.70;54.40;;;;;;4950177;28;93151;-70
2022/03/01 09:57:18;;;;;;;8.25;6.55;;;16.80;54.40;;;;;;4949020;28;94578;-69
2022/03/01 09:59:44;;;;;;;8.52;6.32;;;16.80;54.40;;;;;;4949488;28;93522;-70
2022/03/01 10:02:10;;;;;;;9.50;6.07;;;16.80;54.30;;;;;;4935057;28;92759;-71
2022/03/01 10:04:55;;;;;;;9.68;6.15;;;16.80;54.20;;;;;;4954890;28;94180;-70
2022/03/01 10:07:25;;;;;;;10.25;6.10;;;16.80;54.10;;;;;;4956637;28;93161;-70
2022/03/01 10:09:53;;;;;;;9.90;6.00;;;16.80;54.10;;;;;;4954822;28;93300;-71
2022/03/01 10:12:26;;;;;;;7.55;5.80;;;16.80;54.10;;;;;;4953725;28;92465;-70
2022/03/01 10:14:59;;;;;;;;;;;16.80;54.10;;;;;;4953487;28;92598;-70
2022/03/01 10:17:34;;;;;;;9.18;5.85;;;16.70;54.10;;;;;;4952638;28;95958;-70
2022/03/01 10:20:01;;;;;;;8.00;5.57;;;16.70;54.20;;;;;;4953357;28;95607;-69
2022/03/01 10:22:26;;;;;;;8.98;6.00;;;16.70;54.10;;;;;;4953117;28;92450;-70
2022/03/01 10:24:52;;;;;;;6.82;5.65;;;16.80;54.30;;;;;;4952826;28;92480;-69
2022/03/01 10:27:28;;;;;;;9.93;6.00;;;16.70;54.10;;;;;;4951900;28;100715;-70
2022/03/01 10:29:54;;;;;;;8.90;6.32;;;16.80;54.00;;;;;;4952305;28;94193;-70
2022/03/01 10:32:19;;;;;;;7.15;5.82;;;16.70;54.00;;;;;;4952257;28;92675;-70
2022/03/01 10:34:58;;;;;;;7.57;5.90;;;16.70;54.00;;;;;;4953139;28;91807;-70
2022/03/01 10:37:29;;;;;;;8.35;5.75;;;16.70;54.00;;;;;;4951501;28;93567;-70
2022/03/01 10:40:14;;;;;;;8.90;5.95;;;16.70;54.00;;;;;;4952746;28;93925;-70
2022/03/01 10:42:42;;;;;;;7.22;5.57;;;16.70;54.00;;;;;;4951566;28;95456;-70
2022/03/01 10:45:11;;;;;;;8.40;5.55;;;16.70;54.10;;;;;;4952697;28;92564;-70
2022/03/01 10:47:38;;;;;;;7.63;5.95;;;16.70;54.00;;;;;;4951402;28;94667;-69
2022/03/01 10:50:11;;;;;;;8.52;6.03;;;16.70;53.90;;;;;;4951536;28;93469;-69
2022/03/01 10:52:39;;;;;;;8.20;6.15;;;16.70;53.90;;;;;;4951903;28;93140;-70
2022/03/01 10:55:06;;;;;;;8.75;6.07;;;16.60;53.80;;;;;;4951948;28;92772;-69
2022/03/01 10:57:32;;;;;;;8.20;6.03;;;16.70;53.90;;;;;;4933746;28;94470;-70
2022/03/01 10:59:58;;;;;;;8.15;5.95;;;16.60;53.80;;;;;;4951878;28;92998;-70
2022/03/01 11:02:26;;;;;;;8.00;5.70;;;16.70;53.80;;;;;;4951722;28;93073;-70
2022/03/01 11:04:52;;;;;;;7.72;6.13;;;16.60;53.80;;;;;;4952625;28;92980;-70
2022/03/01 11:07:19;;;;;;;8.73;6.20;;;16.60;53.80;;;;;;4951113;28;97064;-70
2022/03/01 11:09:46;;;;;;;7.80;5.80;;;16.60;53.70;;;;;;4934280;28;97206;-70
2022/03/01 11:12:13;;;;;;;7.85;6.38;;;16.60;53.60;;;;;;4951151;28;93031;-70
2022/03/01 11:15:09;;;;;;;6.75;5.90;;;16.60;53.70;;;;;;4952164;28;92541;-70
2022/03/01 11:17:40;;;;;;;8.27;5.93;;;16.60;53.60;;;;;;4951942;28;95909;-70
2022/03/01 11:20:14;;;;;;;7.68;6.03;;;16.50;53.70;;;;;;4950924;28;95994;-71
2022/03/01 11:22:45;;;;;;;6.47;5.78;;;16.60;53.70;;;;;;4952608;28;92547;-70
2022/03/01 11:25:38;;;;;;;7.40;5.60;;;16.50;53.60;;;;;;4953564;28;92075;-70
2022/03/01 11:28:07;;;;;;;7.35;5.63;;;16.50;53.60;;;;;;4951519;28;94856;-69
2022/03/01 11:30:45;;;;;;;7.05;6.30;;;16.50;53.70;;;;;;4951401;28;92933;-70
2022/03/01 11:33:11;;;;;;;9.85;6.25;;;16.50;53.70;;;;;;4950728;28;95408;-70
2022/03/01 11:35:41;;;;;;;8.07;6.43;;;16.50;53.70;;;;;;4952194;28;93808;-70
2022/03/01 11:38:13;;;;;;;7.35;6.10;;;16.50;53.60;;;;;;4951324;28;93264;-69
2022/03/01 11:40:47;;;;;;;8.50;6.30;;;16.60;53.60;;;;;;4951347;28;93099;-70
2022/03/01 11:43:20;;;;;;;8.00;6.10;;;16.50;54.10;;;;;;4950712;28;93320;-70
2022/03/01 11:45:49;;;;;;;7.43;5.68;;;16.50;53.60;;;;;;4952101;28;92504;-72
2022/03/01 11:48:17;;;;;;;8.43;6.30;;;16.50;53.60;;;;;;4951728;28;93193;-69
2022/03/01 11:50:50;;;;;;;7.05;5.82;;;16.60;53.60;;;;;;4954547;28;92915;-70
2022/03/01 11:53:17;;;;;;;;;;;16.50;53.50;;;;;;4957421;28;92691;-70
2022/03/01 11:55:58;;;;;;;9.43;6.63;;;16.50;53.50;;;;;;4954065;28;93635;-70
2022/03/01 11:58:25;;;;;;;6.82;5.72;;;16.50;53.60;;;;;;4950213;28;95510;-70
2022/03/01 12:00:51;;;;;;;8.80;6.07;;;16.50;53.60;;;;;;4951468;28;95196;-70
2022/03/01 12:03:22;;;;;;;6.63;5.63;;;16.50;53.50;;;;;;4951962;28;92917;-70
2022/03/01 12:05:49;;;;;;;8.10;6.40;;;16.50;53.50;;;;;;4951497;28;93076;-70
2022/03/01 12:08:16;;;;;;;7.95;6.57;;;16.50;53.40;;;;;;4951303;28;93221;-70
2022/03/01 12:11:04;;;;;;;8.30;6.30;;;16.50;53.50;;;;;;4951481;28;92989;-70
2022/03/01 12:13:43;;;;;;;9.38;6.10;;;16.50;53.30;;;;;;4950272;28;93942;-70
2022/03/01 12:16:11;;;;;;;7.78;6.30;;;16.50;53.40;;;;;;4951967;28;92085;-71
2022/03/01 12:18:39;;;;;;;8.27;6.72;;;16.50;53.40;;;;;;4952222;28;94314;-70
2022/03/01 12:21:11;;;;;;;7.35;6.30;;;16.50;53.40;;;;;;4951185;28;93026;-70
2022/03/01 12:23:39;;;;;;;6.65;5.80;;;16.50;53.20;;;;;;4950617;28;95376;-70
2022/03/01 12:26:07;;;;;;;7.25;5.75;;;16.50;53.20;;;;;;4951319;28;93142;-70
2022/03/01 12:28:40;;;;;;;7.68;5.95;;;16.50;53.30;;;;;;4950362;28;92930;-70
2022/03/01 12:31:12;;;;;;;8.02;6.50;;;16.50;53.20;;;;;;4950969;28;92782;-72
2022/03/01 12:33:48;;;;;;;8.93;6.22;;;16.50;53.20;;;;;;4951996;28;92692;-70
2022/03/01 12:36:22;;;;;;;6.75;5.95;;;16.50;53.20;;;;;;4951273;28;92826;-69
2022/03/01 12:38:53;;;;;;;9.45;6.70;;;16.50;53.20;;;;;;4950552;28;93253;-70
2022/03/01 12:41:22;;;;;;;7.07;5.80;;;16.50;53.20;;;;;;4950987;28;94006;-71
2022/03/01 12:43:56;;;;;;;7.28;6.20;;;16.50;53.20;;;;;;4950335;28;92673;-70
2022/03/01 12:46:22;;;;;;;7.03;6.00;;;16.50;53.20;;;;;;4951617;28;92622;-70
2022/03/01 12:48:50;;;;;;;7.28;5.75;;;16.50;53.10;;;;;;4949814;28;95570;-70
2022/03/01 12:51:16;;;;;;;7.85;6.25;;;16.50;53.10;;;;;;4951452;28;95006;-70
2022/03/01 12:53:59;;;;;;;6.90;6.20;;;16.50;52.60;;;;;;4950803;28;92646;-70
2022/03/01 12:56:33;;;;;;;8.80;6.30;;;16.50;53.10;;;;;;4951068;28;92884;-70
2022/03/01 12:59:13;;;;;;;9.05;6.32;;;16.50;53.10;;;;;;4952020;28;93185;-70
2022/03/01 13:01:43;;;;;;;7.22;6.10;;;16.50;53.00;;;;;;4951037;28;93107;-70
2022/03/01 13:04:10;;;;;;;8.88;6.55;;;16.50;53.20;;;;;;4951203;28;92812;-71
2022/03/01 13:06:37;;;;;;;8.52;6.22;;;16.50;53.10;;;;;;4952741;28;92304;-70
2022/03/01 13:09:04;;;;;;;9.77;6.80;;;16.40;53.00;;;;;;4950804;28;93934;-70
2022/03/01 13:11:30;;;;;;;8.50;6.35;;;16.50;53.10;;;;;;4951012;28;92809;-69
2022/03/01 13:13:58;;;;;;;7.78;6.57;;;16.40;53.00;;;;;;4949981;28;95379;-69
2022/03/01 13:16:29;;;;;;;8.35;6.55;;;16.40;53.00;;;;;;4950498;28;92580;-69
2022/03/01 13:19:19;;;;;;;7.68;6.68;;;16.50;53.00;;;;;;4950822;28;94614;-69
2022/03/01 13:22:10;;;;;;;8.90;5.82;;;16.40;53.00;;;;;;4940426;28;93604;-69
2022/03/01 13:24:39;;;;;;;7.93;6.30;;;16.40;53.00;;;;;;4941024;28;92489;-69
2022/03/01 13:27:11;;;;;;;8.85;6.70;;;16.40;53.00;;;;;;4950584;28;93004;-70
2022/03/01 13:29:38;;;;;;;7.20;6.50;;;16.50;53.00;;;;;;4952083;28;92974;-70
2022/03/01 13:32:03;;;;;;;7.07;5.97;;;16.50;53.00;;;;;;4950303;28;94185;-70
2022/03/01 13:34:30;;;;;;;7.68;6.60;;;16.40;52.90;;;;;;4951773;28;92492;-69
2022/03/01 13:36:55;;;;;;;8.20;6.30;;;16.40;53.00;;;;;;4957317;28;92484;-69
2022/03/01 13:39:22;;;;;;;7.72;6.60;;;16.40;53.00;;;;;;4958367;28;95287;-70
2022/03/01 13:41:52;;;;;;;8.05;6.65;;;16.40;52.90;;;;;;4956418;28;96229;-69
2022/03/01 13:44:27;;;;;;;7.97;6.20;;;16.40;52.90;;;;;;4955034;28;92914;-69
2022/03/01 13:47:01;;;;;;;7.55;6.32;;;16.40;52.90;;;;;;4954593;28;92724;-69
2022/03/01 13:49:30;;;;;;;7.57;6.40;;;16.40;53.00;;;;;;4937093;28;95922;-69
2022/03/01 13:52:10;;;;;;;8.05;6.10;;;16.40;54.00;;;;;;4955206;28;93913;-69
2022/03/01 13:54:41;;;;;;;8.00;6.68;;;16.40;53.00;;;;;;4955806;28;92936;-70
2022/03/01 13:57:08;;;;;;;8.13;6.57;;;16.40;52.90;;;;;;4955154;28;92143;-70
2022/03/01 13:59:35;;;;;;;7.00;6.30;;;16.40;53.90;;;;;;4954736;28;93040;-70
2022/03/01 14:02:01;;;;;;;12.70;6.35;;;16.40;53.00;;;;;;4953775;28;92881;-71
2022/03/01 14:04:27;;;;;;;7.10;6.40;;;16.40;52.90;;;;;;4953521;28;95434;-70
2022/03/01 14:06:54;;;;;;;8.55;6.10;;;16.40;52.90;;;;;;4955741;28;93006;-70
2022/03/01 14:09:20;;;;;;;6.80;6.00;;;16.40;52.90;;;;;;4954229;28;94288;-70
2022/03/01 14:11:59;;;;;;;7.32;6.55;;;16.40;52.90;;;;;;4955347;28;92922;-70
2022/03/01 14:14:26;;;;;;;7.53;6.43;;;16.40;52.90;;;;;;4953834;28;92544;-70
2022/03/01 14:16:55;;;;;;;7.13;6.07;;;16.40;52.90;;;;;;4954788;28;93133;-70
2022/03/01 14:19:20;;;;;;;7.32;6.40;;;16.40;52.90;;;;;;4953237;28;94853;-70
2022/03/01 14:21:46;;;;;;;7.75;6.80;;;16.40;52.90;;;;;;4954166;28;93328;-69
2022/03/01 14:24:14;;;;;;;9.75;6.97;;;16.40;52.90;;;;;;4953545;28;92870;-69
2022/03/01 14:26:40;;;;;;;7.95;6.20;;;16.40;52.90;;;;;;4953682;28;92834;-70
2022/03/01 14:29:09;;;;;;;7.43;6.60;;;16.40;52.90;;;;;;4952272;28;96342;-70